Bryce Canyon, UT

2:38 AM MDT on August 21, 2014 (GMT -0600)
Bryce Canyon | Change Station
CLOSE
Current Station
Airport
Location: Bryce Canyon,
Elevation: 7585 ft
Nearby Weather Stations

Elev 7585 ft 37.71 °N, 112.15 °W | Updated 45 minutes ago

Clear
Clear
43 °F
Feels Like 41 °F
N
4
Wind Variable Wind from NNE

Today
High -- | Low -- °F
--% Chance of Precip.
Yesterday
High -- | Low -- °F
Precip. -- in
6:49 AM 8:13 PM
Waning Crescent, 15% visible
Pressure 30.02 in
Visibility 10.0 miles
Clouds Clear
Windchill 41 °F
Dew Point 41 °F
Humidity 93%
Rainfall 0.00 in
Snow Depth Not available.
UV 0 out of 12
Pollen 6.70 out of 12
Air Quality Not available.
Flu Activity Not available.
METAR KBCE 210753Z AUTO 02003KT 10SM CLR 06/05 A3028 RMK AO2 SLP166 T00610050

More Conditions Fewer Conditions

Pressure 30.02 in
Visibility 10.0 miles
Clouds Clear
Windchill 41 °F
Dew Point 41 °F
Humidity 93%
Rainfall 0.00 in
Snow Depth Not available.
UV 0 out of 12
Pollen 6.70 out of 12
Air Quality Not available.
Flu Activity Not available.
METAR KBCE 210753Z AUTO 02003KT 10SM CLR 06/05 A3028 RMK AO2 SLP166 T00610050

More Conditions Fewer Conditions

10-Day Weather Forecast

Almanac

Astronomy

Aug. 21, 2014 Rise Set
Actual Time 6:49 AM MDT 8:13 PM MDT
Civil Twilight 6:22 AM MDT 8:40 PM MDT
Nautical Twilight 5:49 AM MDT 9:13 PM MDT
Astronomical Twilight 5:14 AM MDT 9:47 PM MDT
Moon 3:24 AM MDT 5:43 PM MDT
Length of Visible Light 14h 18m
Length of Day
13h 23m
Tomorrow will be 2m 13s shorter.
Waning Crescent, 15% of the Moon is Illuminated
Today
Waning Crescent
Aug 25
New
Sep 2
First Quarter
Sep 8
Full
Sep 15
Last Quarter

Today's Extremes

State Highs State Lows

Community

WunderPhotos

Upload Photos

1,745,867 photos uploaded!

Nearby

Snow Depth

Station Depth Elevation
Agua Canyon 4 in 8900 ft
Long Valley Jct 1 in 7360 ft
Harris Flat 0 in 7800 ft
Clayton Springs 0 in 10000 ft
Midway Valley 4 in 9800 ft

Earthquake Activity

City Distance Mag. Time & Date
No recent earthquake activity has been reported nearby.
Minimum magnitude displayed is 2.5.

Coastal Water Temperatures

Place Temperature
No Stations Reporting

Nearby Weather Stations